Time;durP1;ratioP1;P1;durP2;ratioP2;P2;SDS_P1;SDS_P2;PMS_P1;PMS_P2;Temp;Humidity;BMP_temperature;BMP_pressure;BME280_temperature;BME280_humidity;BME280_pressure;Samples;Min_cycle;Max_cycle;Signal;HPM_P1;HPM_P2
2022/12/29 00:00:05;;;;;;;40.10;18.45;;;;;;;7.73;62.06;100684.19;1731915;81;21398;-65
2022/12/29 00:02:34;;;;;;;34.45;16.48;;;;;;;7.59;61.98;100678.28;1731262;82;21950;-65
2022/12/29 00:05:01;;;;;;;31.68;16.90;;;;;;;7.53;62.81;100683.19;1731943;82;21069;-65
2022/12/29 00:07:27;;;;;;;37.85;17.32;;;;;;;7.22;62.91;100684.53;1732092;82;21057;-65
2022/12/29 00:09:55;;;;;;;32.60;16.23;;;;;;;7.25;63.13;100682.75;1731804;82;21031;-65
2022/12/29 00:12:22;;;;;;;35.25;16.97;;;;;;;7.23;63.61;100679.73;1732132;82;21058;-66
2022/12/29 00:17:35;;;;;;;33.90;17.12;;;;;;;7.65;62.79;100679.95;1732190;82;21566;-66
2022/12/29 00:36:34;;;;;;;36.75;18.20;;;;;;;7.61;61.61;100686.12;1732012;82;21058;-66
2022/12/29 00:44:37;;;;;;;37.42;19.57;;;;;;;7.51;61.79;100668.38;1731976;81;21054;-65
2022/12/29 00:47:04;;;;;;;37.30;18.15;;;;;;;7.44;61.70;100664.98;1732112;81;21597;-66
2022/12/29 00:49:33;;;;;;;37.00;17.57;;;;;;;7.31;61.56;100663.44;1731907;81;21058;-67
2022/12/29 00:52:07;;;;;;;39.03;18.37;;;;;;;7.66;61.21;100654.14;1732006;82;21031;-65
2022/12/29 00:54:36;;;;;;;31.68;16.25;;;;;;;7.28;61.45;100661.73;1731982;81;21098;-66
2022/12/29 00:57:04;;;;;;;35.45;17.48;;;;;;;7.71;61.30;100655.81;1732017;82;21058;-67
2022/12/29 00:59:31;;;;;;;31.57;16.20;;;;;;;7.81;59.99;100653.89;1732283;81;21554;-67
2022/12/29 01:01:58;;;;;;;31.87;15.63;;;;;;;8.61;58.40;100641.47;1731898;82;21029;-65
2022/12/29 01:04:25;;;;;;;30.72;15.45;;;;;;;8.46;58.50;100645.71;1731730;82;21093;-65
2022/12/29 01:06:52;;;;;;;29.80;13.98;;;;;;;8.47;57.71;100639.58;1732172;81;21867;-65
2022/12/29 01:12:04;;;;;;;29.92;15.18;;;;;;;8.20;58.01;100641.81;1732030;81;21101;-65
2022/12/29 01:14:31;;;;;;;23.18;13.30;;;;;;;8.37;57.90;100640.61;1732136;81;21590;-66
2022/12/29 01:16:58;;;;;;;31.33;14.10;;;;;;;8.22;58.63;100639.16;1733032;82;21066;-65
2022/12/29 01:19:25;;;;;;;24.85;12.43;;;;;;;8.30;57.68;100623.27;1750738;82;21887;-65
2022/12/29 01:21:52;;;;;;;26.60;12.45;;;;;;;8.28;57.58;100623.73;1750882;82;21069;-65
2022/12/29 01:24:19;;;;;;;28.55;13.60;;;;;;;8.23;57.54;100621.66;1750804;82;21049;-65
2022/12/29 01:26:47;;;;;;;26.27;12.30;;;;;;;7.96;57.35;100623.92;1750627;82;21093;-64
2022/12/29 01:29:13;;;;;;;22.13;12.53;;;;;;;8.60;58.14;100621.80;1750779;82;21018;-64
2022/12/29 01:31:40;;;;;;;25.35;12.95;;;;;;;8.56;56.79;100620.16;1750755;82;21803;-66
2022/12/29 01:34:09;;;;;;;23.02;12.45;;;;;;;8.71;56.22;100609.31;1750509;82;21612;-65
2022/12/29 01:36:35;;;;;;;24.92;11.48;;;;;;;8.91;56.67;100601.00;1750361;82;21041;-65
2022/12/29 01:39:03;;;;;;;21.10;11.75;;;;;;;8.42;55.89;100599.45;1750548;82;21053;-65
2022/12/29 01:41:31;;;;;;;21.30;10.90;;;;;;;8.38;56.58;100597.74;1750503;82;21527;-65
2022/12/29 01:44:00;;;;;;;22.98;11.05;;;;;;;8.32;57.40;100596.09;1750590;82;21162;-65
2022/12/29 01:46:41;;;;;;;18.95;10.32;;;;;;;8.32;55.46;100596.09;1750888;82;21045;-66
2022/12/29 01:49:15;;;;;;;21.17;11.78;;;;;;;8.81;56.94;100595.52;1721149;82;21088;-64
2022/12/29 01:51:59;;;;;;;26.20;11.10;;;;;;;8.73;54.76;100592.22;1750695;82;21037;-65
2022/12/29 01:54:31;;;;;;;19.45;10.82;;;;;;;8.50;54.08;100600.13;1750513;82;21041;-66
2022/12/29 01:57:00;;;;;;;20.55;10.38;;;;;;;8.98;55.67;100581.57;1750787;82;21853;-66
2022/12/29 01:59:32;;;;;;;20.87;11.47;;;;;;;9.05;52.74;100581.44;1750773;82;21093;-66
2022/12/29 02:01:59;;;;;;;18.32;9.80;;;;;;;8.95;52.44;100576.40;1751093;80;21541;-65
2022/12/29 02:04:26;;;;;;;23.95;10.28;;;;;;;9.10;52.57;100569.05;1721488;82;21049;-65
2022/12/29 02:07:01;;;;;;;18.85;9.95;;;;;;;8.81;51.90;100567.95;1750500;81;21030;-65
2022/12/29 02:09:27;;;;;;;21.80;9.85;;;;;;;8.72;52.60;100571.67;1750575;81;21108;-65
2022/12/29 02:11:53;;;;;;;19.20;9.63;;;;;;;8.80;52.76;100575.42;1750784;82;21082;-65
2022/12/29 02:14:20;;;;;;;19.67;9.08;;;;;;;8.92;51.70;100566.40;1750676;82;21048;-65
2022/12/29 02:17:12;;;;;;;20.52;9.05;;;;;;;9.15;52.45;100565.85;1750611;82;21029;-66
2022/12/29 02:20:08;;;;;;;19.35;9.18;;;;;;;8.62;51.66;100572.75;1750486;82;21045;-66
2022/12/29 02:23:04;;;;;;;16.70;8.93;;;;;;;8.94;50.96;100573.34;1750857;81;21031;-66
2022/12/29 02:25:59;;;;;;;22.20;9.78;;;;;;;9.23;51.70;100573.12;1735261;82;21003;-65
2022/12/29 02:28:59;;;;;;;16.45;9.43;;;;;;;9.58;50.65;100566.10;1750646;82;21033;-66
2022/12/29 02:31:31;;;;;;;16.85;9.38;;;;;;;9.16;50.30;100569.77;1750154;82;21070;-66
2022/12/29 02:34:12;;;;;;;17.02;8.75;;;;;;;9.35;50.46;100562.75;1750617;82;21100;-64
2022/12/29 02:36:50;;;;;;;19.70;9.03;;;;;;;9.25;51.50;100559.48;1749720;82;22080;-66
2022/12/29 02:39:43;;;;;;;18.90;8.70;;;;;;;9.26;50.02;100555.95;1747802;82;21069;-65
2022/12/29 02:42:27;;;;;;;16.20;8.35;;;;;;;9.26;49.80;100555.95;1749834;82;21044;-65
2022/12/29 02:45:04;;;;;;;15.58;8.45;;;;;;;9.23;51.01;100559.97;1750512;82;21064;-65
2022/12/29 02:47:42;;;;;;;14.33;7.75;;;;;;;9.47;49.57;100550.59;1750827;82;22063;-66
2022/12/29 02:50:22;;;;;;;17.52;7.80;;;;;;;9.12;49.83;100552.34;1751217;82;21091;-65
2022/12/29 02:52:57;;;;;;;17.27;7.53;;;;;;;8.96;50.97;100543.97;1750824;82;21089;-65
2022/12/29 02:55:23;;;;;;;16.05;7.72;;;;;;;8.46;50.41;100547.28;1750902;82;21029;-65
2022/12/29 02:58:06;;;;;;;15.30;8.05;;;;;;;8.10;51.57;100541.89;1721090;82;21076;-65
2022/12/29 03:00:33;;;;;;;15.95;8.85;;;;;;;8.34;52.42;100540.96;1725376;80;21033;-65
2022/12/29 03:03:17;;;;;;;15.05;7.17;;;;;;;8.87;50.62;100537.61;1750663;82;21155;-64
2022/12/29 03:06:08;;;;;;;18.15;7.97;;;;;;;8.82;49.95;100534.23;1750760;82;21537;-66
2022/12/29 03:08:49;;;;;;;15.08;7.85;;;;;;;9.18;50.16;100532.95;1750397;80;21009;-65
2022/12/29 03:17:37;;;;;;;14.85;7.58;;;;;;;9.19;49.64;100514.50;1750797;82;21323;-65
2022/12/29 03:20:09;;;;;;;15.53;8.45;;;;;;;9.31;50.00;100494.92;1750668;82;21598;-66
2022/12/29 03:22:41;;;;;;;10.98;6.47;;;;;;;9.74;48.41;100501.67;1751048;81;21033;-65
2022/12/29 03:25:32;;;;;;;17.82;8.53;;;;;;;9.84;50.58;100503.12;1750875;81;21081;-64
2022/12/29 03:28:05;;;;;;;14.47;7.58;;;;;;;9.61;48.85;100505.53;1750776;82;27064;-64
2022/12/29 03:30:34;;;;;;;16.07;7.72;;;;;;;9.28;48.77;100504.67;1750965;82;21842;-65
2022/12/29 03:33:05;;;;;;;15.93;7.45;;;;;;;8.95;50.96;100509.84;1721457;82;21104;-65
2022/12/29 03:35:36;;;;;;;17.07;7.85;;;;;;;9.33;49.37;100506.27;1722470;82;21557;-64
2022/12/29 03:38:14;;;;;;;15.90;7.85;;;;;;;8.61;50.28;100507.58;1721045;82;21057;-66
2022/12/29 03:40:53;;;;;;;15.05;8.20;;;;;;;9.15;50.06;100501.48;1751005;82;21075;-64
2022/12/29 03:43:19;;;;;;;15.95;8.28;;;;;;;9.05;49.27;100497.37;1751023;82;21124;-64
2022/12/29 03:45:47;;;;;;;13.70;7.83;;;;;;;9.64;48.46;100502.84;1751215;82;21089;-66
2022/12/29 03:48:13;;;;;;;17.25;8.43;;;;;;;9.17;49.89;100497.91;1750849;82;21093;-65
2022/12/29 03:50:41;;;;;;;16.70;9.05;;;;;;;9.28;48.99;100503.36;1750732;82;22070;-65
2022/12/29 03:53:07;;;;;;;18.57;9.33;;;;;;;9.10;49.88;100509.94;1750803;82;21096;-65
2022/12/29 03:55:34;;;;;;;19.55;8.55;;;;;;;8.75;49.99;100518.22;1750606;82;21239;-64
2022/12/29 03:58:00;;;;;;;16.48;8.58;;;;;;;8.61;50.67;100502.78;1751212;82;21053;-66
2022/12/29 04:00:32;;;;;;;24.72;9.73;;;;;;;8.40;52.99;100519.88;1748222;80;21053;-65
2022/12/29 04:02:59;;;;;;;14.63;7.40;;;;;;;8.77;50.78;100514.65;1750826;82;21112;-64
2022/12/29 04:05:26;;;;;;;16.77;8.50;;;;;;;9.12;51.43;100505.51;1750812;82;20985;-65
2022/12/29 04:07:54;;;;;;;17.73;8.25;;;;;;;8.93;51.40;100511.21;1750764;82;21600;-64
2022/12/29 04:10:21;;;;;;;17.20;8.83;;;;;;;8.88;50.05;100506.53;1750620;82;21574;-66
2022/12/29 04:12:50;;;;;;;17.25;9.35;;;;;;;8.98;50.94;100494.87;1750839;82;21518;-65
2022/12/29 04:15:18;;;;;;;16.80;8.45;;;;;;;8.60;50.72;100494.05;1721701;82;21064;-65
2022/12/29 04:17:45;;;;;;;19.12;8.88;;;;;;;9.19;49.91;100487.36;1750759;82;21021;-66
2022/12/29 04:23:03;;;;;;;20.50;9.48;;;;;;;8.49;50.91;100493.42;1732272;81;21075;-65
2022/12/29 04:25:31;;;;;;;17.35;8.83;;;;;;;8.64;51.56;100495.28;1687135;84;21108;-65
2022/12/29 04:27:58;;;;;;;17.98;9.60;;;;;;;8.78;51.38;100494.50;1690649;83;21102;-66
2022/12/29 04:30:36;;;;;;;17.48;9.23;;;;;;;7.98;51.80;100493.59;1662102;84;21577;-65
2022/12/29 04:33:06;;;;;;;22.60;9.75;;;;;;;8.08;52.58;100492.53;1700385;84;21182;-65
2022/12/29 04:35:32;;;;;;;21.93;10.08;;;;;;;8.84;50.74;100491.73;1701264;84;21098;-65
2022/12/29 04:37:59;;;;;;;19.73;9.85;;;;;;;8.74;51.15;100492.84;1701215;84;21074;-66
2022/12/29 04:40:25;;;;;;;19.77;10.40;;;;;;;8.57;52.20;100492.78;1701172;84;21549;-65
2022/12/29 04:42:52;;;;;;;22.32;10.03;;;;;;;8.54;51.04;100491.55;1701247;84;21062;-65
2022/12/29 04:45:20;;;;;;;17.65;9.30;;;;;;;8.89;51.98;100489.00;1701490;84;21843;-65
2022/12/29 04:47:54;;;;;;;20.55;9.98;;;;;;;8.95;50.51;100485.77;1700512;84;21070;-66
2022/12/29 04:50:40;;;;;;;16.15;8.93;;;;;;;8.77;50.15;100482.28;1701319;83;21063;-65
2022/12/29 04:53:17;;;;;;;19.20;9.00;;;;;;;8.85;50.64;100484.25;1665004;86;21598;-65
2022/12/29 04:55:44;;;;;;;16.55;9.65;;;;;;;8.23;51.62;100482.14;1665138;86;21083;-64
2022/12/29 04:58:11;;;;;;;16.75;8.90;;;;;;;8.53;51.33;100478.00;1664993;86;21171;-66
2022/12/29 05:00:37;;;;;;;20.77;10.88;;;;;;;8.61;51.95;100474.76;1664885;86;21134;-65
2022/12/29 05:03:05;;;;;;;21.87;10.40;;;;;;;8.91;50.31;100467.50;1665152;86;21043;-65
2022/12/29 05:05:32;;;;;;;23.85;10.25;;;;;;;8.81;51.03;100478.66;1664747;86;21116;-66
2022/12/29 05:08:00;;;;;;;27.22;10.78;;;;;;;8.69;51.17;100475.02;1664838;86;21114;-65
2022/12/29 05:10:27;;;;;;;17.67;9.30;;;;;;;7.85;52.25;100479.03;1636210;86;21298;-66
2022/12/29 05:12:54;;;;;;;19.65;10.38;;;;;;;8.26;52.32;100488.66;1664777;86;21563;-65
2022/12/29 05:15:21;;;;;;;20.30;9.93;;;;;;;7.69;52.67;100485.88;1664901;86;21091;-65
2022/12/29 05:17:48;;;;;;;19.40;9.50;;;;;;;8.22;52.37;100486.98;1665156;86;21075;-65
2022/12/29 05:20:15;;;;;;;22.45;10.55;;;;;;;8.19;52.22;100479.19;1664027;85;21626;-65
2022/12/29 05:22:42;;;;;;;19.12;9.35;;;;;;;7.75;52.33;100466.11;1651125;86;22003;-66
2022/12/29 05:25:09;;;;;;;19.45;9.50;;;;;;;8.12;52.64;100473.21;1694820;84;21112;-66
2022/12/29 05:27:38;;;;;;;19.50;9.48;;;;;;;8.38;51.87;100477.02;1709212;83;21479;-64
2022/12/29 05:30:13;;;;;;;21.93;9.78;;;;;;;8.48;51.69;100469.38;1723605;83;21056;-64
2022/12/29 05:32:40;;;;;;;25.52;10.58;;;;;;;8.86;51.98;100478.13;1725632;83;21349;-64
2022/12/29 05:35:09;;;;;;;17.75;10.00;;;;;;;8.73;50.42;100480.63;1725441;83;21884;-64
2022/12/29 05:37:36;;;;;;;20.82;10.63;;;;;;;8.60;51.08;100481.34;1725445;83;21069;-64
2022/12/29 05:40:05;;;;;;;18.73;10.72;;;;;;;8.22;52.03;100485.67;1725661;83;21025;-64
2022/12/29 05:42:33;;;;;;;25.43;10.30;;;;;;;8.41;51.52;100482.22;1725545;83;21549;-64
2022/12/29 05:45:10;;;;;;;23.35;10.63;;;;;;;8.59;52.21;100476.55;1723961;83;21076;-64
2022/12/29 05:47:48;;;;;;;22.65;10.85;;;;;;;8.88;50.73;100488.14;1662072;86;21347;-64
2022/12/29 05:50:16;;;;;;;19.42;9.60;;;;;;;8.68;50.84;100477.25;1717814;81;21073;-65
2022/12/29 05:53:03;;;;;;;19.95;10.72;;;;;;;8.71;52.00;100470.60;1693771;83;21029;-67
2022/12/29 05:55:30;;;;;;;23.75;10.70;;;;;;;9.15;50.14;100471.26;1725359;83;21163;-65
2022/12/29 05:57:57;;;;;;;24.43;10.38;;;;;;;9.31;49.55;100470.41;1725348;83;21064;-64
2022/12/29 06:00:24;;;;;;;23.42;11.57;;;;;;;9.34;50.15;100470.32;1725264;83;21124;-65
2022/12/29 06:02:51;;;;;;;19.45;10.85;;;;;;;9.56;48.77;100464.91;1725302;83;21088;-63
2022/12/29 06:05:18;;;;;;;23.57;11.12;;;;;;;8.87;50.26;100468.02;1725158;83;21072;-65
2022/12/29 06:07:45;;;;;;;20.30;11.28;;;;;;;9.11;49.84;100473.12;1725392;83;21125;-65
2022/12/29 06:10:13;;;;;;;21.77;11.22;;;;;;;9.42;49.12;100471.84;1725193;83;21064;-66
2022/12/29 06:12:57;;;;;;;25.55;10.58;;;;;;;9.38;49.44;100465.41;1724356;83;21172;-65
2022/12/29 06:15:24;;;;;;;22.35;11.70;;;;;;;9.26;49.05;100461.33;1724935;83;21068;-64
2022/12/29 06:17:51;;;;;;;20.72;10.53;;;;;;;9.34;49.42;100465.95;1725208;83;21064;-65
2022/12/29 06:20:18;;;;;;;25.20;11.80;;;;;;;8.46;50.28;100467.23;1729926;82;21042;-65
2022/12/29 06:22:46;;;;;;;22.93;11.33;;;;;;;8.27;50.64;100474.63;1731791;81;21246;-66
2022/12/29 06:25:13;;;;;;;23.35;12.00;;;;;;;8.87;51.56;100468.47;1731831;81;21288;-66
2022/12/29 06:27:47;;;;;;;23.12;11.12;;;;;;;8.99;50.63;100474.27;1729097;81;21049;-66
2022/12/29 06:30:14;;;;;;;23.30;11.45;;;;;;;8.20;51.62;100475.66;1706166;83;21574;-66
2022/12/29 06:32:41;;;;;;;23.25;10.45;;;;;;;8.34;52.81;100468.80;1694878;84;21513;-64
2022/12/29 06:35:09;;;;;;;21.27;11.50;;;;;;;8.34;51.49;100472.73;1727364;83;21561;-66
2022/12/29 06:37:38;;;;;;;21.27;11.15;;;;;;;8.40;51.85;100478.74;1726485;82;21211;-65
2022/12/29 06:40:07;;;;;;;21.93;11.93;;;;;;;8.50;51.83;100471.52;1727132;83;21886;-65
2022/12/29 06:42:36;;;;;;;23.73;12.18;;;;;;;8.61;51.16;100478.69;1725146;82;21076;-65
2022/12/29 06:45:10;;;;;;;28.07;12.55;;;;;;;9.51;51.09;100484.34;1724437;82;21090;-65
2022/12/29 06:47:37;;;;;;;25.55;12.95;;;;;;;9.31;49.81;100488.35;1727308;83;21071;-65
2022/12/29 06:50:05;;;;;;;21.00;11.95;;;;;;;8.67;50.44;100487.32;1727735;83;21108;-65
2022/12/29 06:52:31;;;;;;;28.83;12.95;;;;;;;8.90;50.93;100474.49;1727421;83;21057;-65
2022/12/29 06:54:58;;;;;;;22.00;11.28;;;;;;;8.77;50.30;100484.91;1727321;83;21057;-64
2022/12/29 06:57:26;;;;;;;23.40;12.55;;;;;;;8.75;50.64;100483.63;1727218;83;21037;-65
2022/12/29 06:59:55;;;;;;;21.95;12.80;;;;;;;8.84;50.89;100486.94;1727336;83;21002;-65
2022/12/29 07:02:24;;;;;;;28.05;12.40;;;;;;;8.89;50.24;100485.91;1694924;84;21065;-65
2022/12/29 07:07:20;;;;;;;28.87;13.17;;;;;;;8.18;53.54;100484.86;1741701;77;88014;-65
2022/12/29 07:09:49;;;;;;;26.82;13.60;;;;;;;8.79;51.81;100484.42;1684665;82;20962;-65
2022/12/29 07:12:17;;;;;;;23.05;11.85;;;;;;;9.08;50.87;100485.45;1676525;84;21022;-64
2022/12/29 07:14:44;;;;;;;24.52;11.95;;;;;;;9.59;50.34;100487.19;1686275;84;21069;-65
2022/12/29 07:17:11;;;;;;;24.55;11.68;;;;;;;9.54;50.90;100487.73;1678789;85;21061;-65
2022/12/29 07:19:37;;;;;;;25.00;11.95;;;;;;;9.95;49.73;100487.05;1678974;85;21065;-66
2022/12/29 07:22:04;;;;;;;33.02;12.68;;;;;;;9.68;49.56;100488.68;1678860;85;21053;-65
2022/12/29 07:24:30;;;;;;;29.25;12.82;;;;;;;9.43;50.26;100488.05;1679112;85;21557;-64
2022/12/29 07:26:57;;;;;;;31.02;14.00;;;;;;;9.26;49.63;100488.93;1678553;85;21029;-65
2022/12/29 07:29:24;;;;;;;34.63;15.98;;;;;;;9.07;49.84;100490.31;1678953;85;21057;-65
2022/12/29 07:31:50;;;;;;;33.80;17.15;;;;;;;9.37;49.83;100494.77;1678866;85;21509;-63
2022/12/29 07:34:17;;;;;;;33.25;17.25;;;;;;;9.60;49.55;100484.09;1678976;85;21505;-64
2022/12/29 07:36:43;;;;;;;32.60;17.80;;;;;;;9.47;50.05;100477.44;1678951;85;21138;-66
2022/12/29 07:39:11;;;;;;;41.60;21.42;;;;;;;9.45;49.49;100482.30;1678655;85;21573;-65
2022/12/29 07:41:37;;;;;;;44.42;20.90;;;;;;;9.16;49.36;100479.57;1678752;85;21089;-65
2022/12/29 07:44:04;;;;;;;39.42;21.75;;;;;;;9.12;49.38;100475.29;1678774;85;21045;-64
2022/12/29 07:46:33;;;;;;;38.33;21.37;;;;;;;9.47;49.96;100473.04;1676753;85;21072;-65
2022/12/29 07:48:59;;;;;;;46.10;22.77;;;;;;;9.86;49.50;100467.12;1678764;85;21369;-66
2022/12/29 07:51:26;;;;;;;42.40;22.30;;;;;;;9.96;48.27;100469.05;1678827;85;21045;-64
2022/12/29 07:53:52;;;;;;;44.18;20.92;;;;;;;9.57;48.28;100461.81;1678811;85;21541;-66
2022/12/29 07:56:19;;;;;;;42.65;21.45;;;;;;;8.93;50.58;100454.73;1678766;85;21114;-64
2022/12/29 07:58:46;;;;;;;48.42;23.05;;;;;;;8.89;50.71;100445.66;1678869;85;21062;-65
2022/12/29 08:01:13;;;;;;;40.95;21.40;;;;;;;8.94;49.94;100451.20;1678891;85;21253;-65
2022/12/29 08:03:41;;;;;;;31.45;16.73;;;;;;;9.24;49.92;100453.94;1678726;85;21097;-65
2022/12/29 08:06:11;;;;;;;33.90;16.85;;;;;;;9.27;50.71;100449.94;1678889;85;21038;-64
2022/12/29 08:08:38;;;;;;;30.25;16.25;;;;;;;10.15;48.00;100454.89;1709532;83;21059;-65
2022/12/29 08:11:04;;;;;;;24.77;14.55;;;;;;;9.72;48.30;100454.82;1675157;85;21048;-65
2022/12/29 08:13:31;;;;;;;30.20;15.53;;;;;;;10.24;48.85;100450.66;1704996;84;21749;-64
2022/12/29 08:15:58;;;;;;;34.00;16.02;;;;;;;9.57;48.46;100449.98;1678389;84;21803;-64
2022/12/29 08:18:25;;;;;;;27.58;14.03;;;;;;;9.42;49.07;100451.28;1648712;87;21049;-64
2022/12/29 08:20:52;;;;;;;20.20;12.18;;;;;;;9.69;48.86;100454.92;1648718;87;21077;-65
2022/12/29 08:23:18;;;;;;;28.98;13.78;;;;;;;9.78;47.98;100461.23;1648774;87;21354;-64
2022/12/29 08:25:45;;;;;;;25.45;13.80;;;;;;;9.54;49.62;100461.91;1648682;87;22190;-66
2022/12/29 08:28:11;;;;;;;28.00;13.43;;;;;;;9.54;49.62;100461.91;1644327;86;21657;-66
2022/12/29 08:30:39;;;;;;;30.70;13.90;;;;;;;9.39;48.67;100462.73;1643252;87;21082;-66
2022/12/29 08:33:06;;;;;;;23.27;13.00;;;;;;;9.58;48.70;100458.30;1633470;87;21117;-65
2022/12/29 08:35:32;;;;;;;28.38;14.28;;;;;;;9.83;49.62;100450.12;1633575;87;21077;-65
2022/12/29 08:37:59;;;;;;;29.63;13.08;;;;;;;9.74;48.28;100449.07;1633512;87;22251;-65
2022/12/29 08:40:26;;;;;;;26.10;13.28;;;;;;;9.72;48.19;100452.65;1633767;87;21077;-64
2022/12/29 08:42:52;;;;;;;35.00;15.58;;;;;;;9.82;49.38;100460.25;1633637;87;21108;-65
2022/12/29 08:45:19;;;;;;;26.55;14.35;;;;;;;10.03;47.86;100453.92;1633762;87;21618;-64
2022/12/29 08:47:46;;;;;;;34.03;18.17;;;;;;;10.63;50.52;100474.53;1633730;87;21121;-64
2022/12/29 08:50:13;;;;;;;35.10;16.40;;;;;;;10.88;46.56;100474.58;1633643;87;21161;-66
2022/12/29 08:52:39;;;;;;;27.90;14.65;;;;;;;10.69;46.71;100473.00;1633023;87;21133;-66
2022/12/29 08:55:08;;;;;;;30.82;16.42;;;;;;;10.80;47.26;100468.71;1633835;87;22255;-65
2022/12/29 08:57:36;;;;;;;32.43;14.90;;;;;;;10.69;46.60;100467.73;1612066;87;21104;-66
2022/12/29 09:00:11;;;;;;;29.30;14.03;;;;;;;11.02;47.14;100461.83;1632849;86;21786;-64
2022/12/29 09:02:37;;;;;;;28.70;14.93;;;;;;;10.55;46.60;100463.36;1628591;88;21950;-65
2022/12/29 09:05:05;;;;;;;23.45;12.88;;;;;;;10.53;46.23;100462.55;1627774;88;21149;-67
2022/12/29 09:07:32;;;;;;;29.87;14.47;;;;;;;10.50;47.40;100455.14;1628823;88;21125;-65
2022/12/29 09:09:59;;;;;;;31.97;14.93;;;;;;;10.19;46.89;100461.80;1627933;87;21078;-65
2022/12/29 09:12:26;;;;;;;35.13;16.67;;;;;;;11.07;46.80;100459.03;1628422;87;21136;-65
2022/12/29 09:14:52;;;;;;;33.00;17.42;;;;;;;11.02;46.75;100464.46;1627007;87;21103;-65
2022/12/29 09:20:06;;;;;;;40.70;18.00;;;;;;;11.28;46.34;100446.89;1628794;87;21100;-64
2022/12/29 09:22:32;;;;;;;39.03;16.27;;;;;;;11.18;45.27;100444.16;1628694;87;21125;-64
2022/12/29 09:24:59;;;;;;;27.22;14.47;;;;;;;10.98;45.30;100446.17;1628840;87;21093;-66
2022/12/29 09:27:25;;;;;;;35.17;16.65;;;;;;;11.36;45.85;100434.28;1628794;88;22036;-64
2022/12/29 09:29:52;;;;;;;32.65;14.87;;;;;;;10.58;46.02;100437.80;1628708;88;21087;-64
2022/12/29 09:32:18;;;;;;;37.73;17.37;;;;;;;10.62;47.52;100431.50;1628821;88;21090;-66
2022/12/29 09:34:45;;;;;;;34.33;17.10;;;;;;;10.76;46.71;100438.10;1629155;88;21506;-66
2022/12/29 09:37:12;;;;;;;36.33;15.25;;;;;;;10.78;46.27;100428.38;1628866;88;21124;-65
2022/12/29 09:39:38;;;;;;;31.85;16.05;;;;;;;11.01;47.19;100427.14;1629155;87;21695;-65
2022/12/29 09:42:16;;;;;;;38.50;15.95;;;;;;;10.77;46.15;100421.41;1628937;88;21545;-66
2022/12/29 09:44:56;;;;;;;35.88;16.32;;;;;;;10.31;47.24;100425.48;1629119;88;21538;-66
2022/12/29 09:47:23;;;;;;;41.68;17.77;;;;;;;10.23;48.76;100426.55;1628960;87;21092;-66
2022/12/29 09:49:55;;;;;;;37.83;17.00;;;;;;;9.69;48.36;100420.73;1630219;88;21076;-67
2022/12/29 09:52:29;;;;;;;37.50;16.60;;;;;;;10.29;48.53;100410.61;1628832;88;25559;-66
2022/12/29 09:55:01;;;;;;;38.23;16.07;;;;;;;10.70;47.48;100400.52;1628682;87;21152;-65
2022/12/29 09:57:36;;;;;;;31.97;16.10;;;;;;;10.46;46.78;100406.58;1628801;87;21246;-66
2022/12/29 10:00:08;;;;;;;37.13;17.25;;;;;;;11.04;47.26;100391.91;1628633;88;21038;-66
2022/12/29 10:03:02;;;;;;;38.58;17.17;;;;;;;10.90;45.86;100396.34;1630312;87;21637;-66
2022/12/29 10:05:49;;;;;;;33.53;15.60;;;;;;;10.84;45.90;100396.57;1628795;88;21182;-65
2022/12/29 10:08:34;;;;;;;32.88;15.98;;;;;;;11.01;47.33;100387.61;1615954;88;21073;-66
2022/12/29 10:11:47;;;;;;;34.45;16.20;;;;;;;11.19;45.72;100381.31;1628758;88;21061;-65
2022/12/29 10:14:57;;;;;;;39.20;15.40;;;;;;;11.22;45.43;100378.09;1579187;88;21086;-65
2022/12/29 10:17:35;;;;;;;29.10;15.28;;;;;;;10.88;46.60;100374.45;1605610;89;21146;-66
2022/12/29 10:20:26;;;;;;;34.70;15.70;;;;;;;10.45;49.20;100373.27;1614779;87;21132;-67
2022/12/29 10:23:28;;;;;;;31.75;15.40;;;;;;;10.38;47.54;100366.49;1629398;87;26950;-66
2022/12/29 10:25:57;;;;;;;29.72;14.10;;;;;;;10.02;47.20;100365.38;1629239;87;21562;-66
2022/12/29 10:28:38;;;;;;;28.23;15.53;;;;;;;10.35;48.02;100356.04;1652501;86;21133;-65
2022/12/29 10:31:11;;;;;;;36.10;16.35;;;;;;;10.19;48.19;100356.95;1640002;86;21067;-68
2022/12/29 10:33:41;;;;;;;26.73;14.95;;;;;;;9.88;47.86;100354.83;1656228;86;22059;-66
2022/12/29 10:36:22;;;;;;;31.33;15.98;;;;;;;10.25;49.33;100351.04;1656412;86;21099;-66
2022/12/29 10:39:13;;;;;;;34.95;16.00;;;;;;;10.21;47.89;100354.67;1655119;86;21604;-66
2022/12/29 10:41:51;;;;;;;30.77;15.23;;;;;;;10.04;48.08;100353.05;1656176;86;21086;-66
2022/12/29 10:44:17;;;;;;;28.27;14.65;;;;;;;10.21;48.79;100351.19;1655576;86;21011;-66
2022/12/29 10:46:44;;;;;;;32.83;15.98;;;;;;;10.24;48.16;100352.42;1656215;85;21297;-65
2022/12/29 10:49:17;;;;;;;24.60;13.28;;;;;;;9.99;47.94;100349.70;1656041;86;21088;-66
2022/12/29 10:51:45;;;;;;;30.62;14.95;;;;;;;10.20;49.38;100350.33;1656089;86;21091;-65
2022/12/29 10:54:40;;;;;;;30.20;15.13;;;;;;;10.33;47.46;100347.33;1656359;86;21155;-66
2022/12/29 10:57:16;;;;;;;34.67;13.62;;;;;;;9.83;48.80;100355.88;1658092;86;21586;-65
2022/12/29 10:59:43;;;;;;;30.08;15.43;;;;;;;10.36;49.52;100349.88;1656158;86;21145;-65
2022/12/29 11:02:21;;;;;;;33.98;14.65;;;;;;;10.55;47.42;100356.25;1656221;86;22163;-65
2022/12/29 11:05:08;;;;;;;27.73;14.23;;;;;;;10.46;47.50;100347.33;1656362;86;21418;-65
2022/12/29 11:07:35;;;;;;;32.55;16.25;;;;;;;10.62;47.88;100336.69;1656161;86;21561;-66
2022/12/29 11:10:40;;;;;;;50.25;22.98;;;;;;;10.71;46.83;100335.06;1658055;86;21099;-65
2022/12/29 11:13:15;;;;;;;31.50;14.70;;;;;;;10.80;47.27;100339.63;1657680;86;21865;-65
2022/12/29 11:15:45;;;;;;;37.03;17.35;;;;;;;10.81;48.66;100330.36;1656378;86;21111;-65
2022/12/29 11:18:28;;;;;;;68.15;30.68;;;;;;;10.16;47.88;100325.02;1656191;86;21127;-66
2022/12/29 11:21:00;;;;;;;56.80;25.55;;;;;;;11.01;47.60;100323.05;1656029;86;21030;-67
2022/12/29 11:23:37;;;;;;;61.13;23.80;;;;;;;10.73;47.82;100323.62;1656208;86;21056;-66
2022/12/29 11:26:21;;;;;;;49.40;22.42;;;;;;;10.77;46.79;100326.56;1656200;86;21571;-65
2022/12/29 11:29:23;;;;;;;40.67;19.87;;;;;;;10.60;47.41;100324.49;1629286;88;21090;-66
2022/12/29 11:31:54;;;;;;;52.10;23.25;;;;;;;10.89;47.93;100328.77;1621845;88;21061;-67
2022/12/29 11:34:30;;;;;;;41.20;19.40;;;;;;;10.43;47.53;100327.70;1629937;88;21085;-65
2022/12/29 11:37:06;;;;;;;30.60;17.75;;;;;;;10.99;47.36;100321.38;1630337;87;21620;-65
2022/12/29 11:39:40;;;;;;;34.90;17.48;;;;;;;10.83;48.42;100330.28;1630011;87;21147;-65
2022/12/29 11:42:16;;;;;;;30.70;16.75;;;;;;;11.24;46.68;100326.63;1629838;88;21546;-66
2022/12/29 11:44:48;;;;;;;35.85;16.02;;;;;;;11.59;46.63;100324.45;1630109;87;21601;-66
2022/12/29 11:47:30;;;;;;;34.18;17.57;;;;;;;11.62;46.53;100337.52;1630274;88;21112;-65
2022/12/29 11:50:06;;;;;;;33.23;17.82;;;;;;;11.22;46.57;100337.69;1630188;88;21109;-66
2022/12/29 11:52:35;;;;;;;31.20;16.05;;;;;;;11.12;46.94;100341.98;1630304;87;21660;-66
2022/12/29 11:55:05;;;;;;;31.20;15.63;;;;;;;11.16;47.36;100347.12;1630097;86;21121;-67
2022/12/29 11:57:33;;;;;;;30.47;15.00;;;;;;;10.70;47.04;100355.74;1630213;88;21800;-65
2022/12/29 12:00:03;;;;;;;29.70;15.20;;;;;;;11.11;48.55;100353.45;1630006;88;21081;-66
2022/12/29 12:02:45;;;;;;;30.35;15.18;;;;;;;11.17;46.49;100346.23;1627550;86;21117;-65
2022/12/29 12:05:30;;;;;;;29.23;13.65;;;;;;;10.75;46.83;100352.09;1629368;88;21299;-65
2022/12/29 12:08:38;;;;;;;26.82;13.55;;;;;;;11.16;47.54;100352.40;1629806;87;21112;-65
2022/12/29 12:11:22;;;;;;;28.32;15.35;;;;;;;11.16;46.28;100351.08;1630065;87;21138;-66
2022/12/29 12:14:02;;;;;;;27.93;14.55;;;;;;;11.43;45.93;100351.86;1587257;88;21573;-69
2022/12/29 12:16:39;;;;;;;25.15;13.95;;;;;;;11.67;46.49;100347.45;1629833;88;21029;-66
2022/12/29 12:19:34;;;;;;;28.85;14.90;;;;;;;11.27;46.90;100348.48;1630202;88;21137;-66